Strona główna
METAR-TAF:

METAR-TAF

Lotnisko :

Port lotniczy Helsinki-Vantaa

Helsinki, Finlandia

Szerokość geograficzna: 60-19N, Długość geograficzna: 024-58E, wysokość: 51 m

Aktualna obserwacja pogody

Raport powstał 31 minut temu, godzina 01:50 UTC
Wiatr 4 kt od północny wschód
Temperatura 11°C
Wilgotność 66%
Ciśnienie 1008 hPa
Widzialność 10 km lub więcej
Brak chmur poniżej 1500 m i brak chmur cumulonimbus

METAR: EFHK 040150Z 04004KT CAVOK 11/05 Q1008 NOSIG

czas: 05:21 (02:21 UTC)

Prognoza

Raport powstał 2 godziny i 56 minut temu, godzina 23:25 UTC
Prognoza ważna od 04 godzina 00 UTC do 04 godzina 24 UTC
Wiatr 5 kt od północny wschód
Widzialność 10 km lub więcej
Brak chmur poniżej 1500 m i brak chmur cumulonimbus
Prawdopodobieństwo 30%
od 04 godzina 16 UTC do 04 godzina 19 UTC
Mało chmury na wysokości 4000 ft, Cumulonimbus.

TAF: EFHK 032325Z 0400/0424 05005KT CAVOK PROB30 0416/0419 FEW040CB

Obserwacja i prognoza pogody dla ponad 4000 lotnisk (raport METAR i TAF).

Dostępne stacje oznaczono żółtymi i czerwonymi punktami na mapie.

Najedź kursorem aby zobaczyć nazwę stacji.

Kliknij aby zobaczyć obserwacje i prognozy pogody.

Aby zmienić mapę: kliknij na zielony przycisk z czarnym krzyżykiem, aby powiększyć; na zielony przycisk z myślnikiem, aby pomniejszyć; na zielone strzałki, aby przejść do map sąsiednich.


METAR-TAF: